sensor_id;sensor_type;location;lat;lon;timestamp;pressure;altitude;pressure_sealevel;temperature;humidity
46534;BME280;32260;52.008;4.752;2023-09-19T00:00:37;100775.31;;;16.43;70.96
46534;BME280;32260;52.008;4.752;2023-09-19T00:03:04;100780.66;;;16.43;70.82
46534;BME280;32260;52.008;4.752;2023-09-19T00:05:35;100781.31;;;16.48;70.62
46534;BME280;32260;52.008;4.752;2023-09-19T00:08:02;100785.81;;;16.48;70.11
46534;BME280;32260;52.008;4.752;2023-09-19T00:10:30;100786.53;;;16.52;70.15
46534;BME280;32260;52.008;4.752;2023-09-19T00:12:58;100789.88;;;16.57;70.08
46534;BME280;32260;52.008;4.752;2023-09-19T00:15:26;100794.13;;;16.61;70.02
46534;BME280;32260;52.008;4.752;2023-09-19T00:17:55;100795.88;;;16.62;69.40
46534;BME280;32260;52.008;4.752;2023-09-19T00:20:21;100800.16;;;16.66;69.16
46534;BME280;32260;52.008;4.752;2023-09-19T00:22:50;100800.16;;;16.66;68.71
46534;BME280;32260;52.008;4.752;2023-09-19T00:25:20;100800.81;;;16.71;68.70
46534;BME280;32260;52.008;4.752;2023-09-19T00:27:47;100800.28;;;16.63;67.33
46534;BME280;32260;52.008;4.752;2023-09-19T00:30:17;100803.59;;;16.68;66.98
46534;BME280;32260;52.008;4.752;2023-09-19T00:32:47;100810.84;;;16.66;65.77
46534;BME280;32260;52.008;4.752;2023-09-19T00:35:14;100798.06;;;16.73;66.06
46534;BME280;32260;52.008;4.752;2023-09-19T00:37:42;100806.06;;;16.73;66.31
46534;BME280;32260;52.008;4.752;2023-09-19T00:40:09;100802.59;;;16.71;66.32
46534;BME280;32260;52.008;4.752;2023-09-19T00:42:38;100794.50;;;16.72;67.10
46534;BME280;32260;52.008;4.752;2023-09-19T00:45:07;100802.75;;;16.68;67.26
46534;BME280;32260;52.008;4.752;2023-09-19T00:47:35;100806.38;;;16.66;67.09
46534;BME280;32260;52.008;4.752;2023-09-19T00:50:04;100803.59;;;16.68;67.06
46534;BME280;32260;52.008;4.752;2023-09-19T00:52:34;100812.44;;;16.70;67.16
46534;BME280;32260;52.008;4.752;2023-09-19T00:55:02;100809.03;;;16.66;66.99
46534;BME280;32260;52.008;4.752;2023-09-19T00:57:29;100812.19;;;16.56;65.33
46534;BME280;32260;52.008;4.752;2023-09-19T01:00:00;100813.13;;;16.55;64.16
46534;BME280;32260;52.008;4.752;2023-09-19T01:02:27;100821.16;;;16.55;64.82
46534;BME280;32260;52.008;4.752;2023-09-19T01:04:55;100821.44;;;16.48;63.80
46534;BME280;32260;52.008;4.752;2023-09-19T01:07:21;100823.44;;;16.43;63.90
46534;BME280;32260;52.008;4.752;2023-09-19T01:09:49;100820.13;;;16.38;63.25
46534;BME280;32260;52.008;4.752;2023-09-19T01:12:21;100819.31;;;16.36;63.54
46534;BME280;32260;52.008;4.752;2023-09-19T01:14:57;100820.19;;;16.37;62.79
46534;BME280;32260;52.008;4.752;2023-09-19T01:17:29;100820.72;;;16.24;62.22
46534;BME280;32260;52.008;4.752;2023-09-19T01:20:09;100823.06;;;16.32;62.86
46534;BME280;32260;52.008;4.752;2023-09-19T01:22:56;100819.59;;;16.30;62.68
46534;BME280;32260;52.008;4.752;2023-09-19T01:25:42;100829.50;;;16.28;62.38
46534;BME280;32260;52.008;4.752;2023-09-19T01:28:41;100818.59;;;16.32;63.10
46534;BME280;32260;52.008;4.752;2023-09-19T01:31:11;100821.03;;;16.37;63.16
46534;BME280;32260;52.008;4.752;2023-09-19T01:33:59;100821.50;;;16.47;63.13
46534;BME280;32260;52.008;4.752;2023-09-19T01:36:29;100824.66;;;16.36;63.46
46534;BME280;32260;52.008;4.752;2023-09-19T01:38:57;100829.72;;;16.42;63.65
46534;BME280;32260;52.008;4.752;2023-09-19T01:41:32;100825.19;;;16.44;63.87
46534;BME280;32260;52.008;4.752;2023-09-19T01:44:00;100837.63;;;16.45;63.89
46534;BME280;32260;52.008;4.752;2023-09-19T01:46:33;100828.50;;;16.49;64.16
46534;BME280;32260;52.008;4.752;2023-09-19T01:52:17;100837.88;;;16.60;63.66
46534;BME280;32260;52.008;4.752;2023-09-19T01:54:40;100836.78;;;16.64;63.78
46534;BME280;32260;52.008;4.752;2023-09-19T01:57:20;100840.59;;;16.58;63.99
46534;BME280;32260;52.008;4.752;2023-09-19T01:59:54;100836.91;;;16.61;63.99
46534;BME280;32260;52.008;4.752;2023-09-19T02:02:23;100834.69;;;16.52;63.80
46534;BME280;32260;52.008;4.752;2023-09-19T02:04:51;100834.22;;;16.42;63.86
46534;BME280;32260;52.008;4.752;2023-09-19T02:07:17;100838.56;;;16.44;64.15
46534;BME280;32260;52.008;4.752;2023-09-19T02:09:43;100837.69;;;16.44;63.21
46534;BME280;32260;52.008;4.752;2023-09-19T02:12:10;100839.88;;;16.55;63.28
46534;BME280;32260;52.008;4.752;2023-09-19T02:14:36;100845.66;;;16.45;63.34
46534;BME280;32260;52.008;4.752;2023-09-19T02:17:03;100835.50;;;16.33;63.24
46534;BME280;32260;52.008;4.752;2023-09-19T02:19:33;100837.75;;;16.42;63.08
46534;BME280;32260;52.008;4.752;2023-09-19T02:22:00;100842.97;;;16.45;62.96
46534;BME280;32260;52.008;4.752;2023-09-19T02:24:29;100834.22;;;16.42;63.20
46534;BME280;32260;52.008;4.752;2023-09-19T02:26:55;100834.28;;;16.40;62.51
46534;BME280;32260;52.008;4.752;2023-09-19T02:29:21;100835.16;;;16.41;62.29
46534;BME280;32260;52.008;4.752;2023-09-19T02:31:48;100838.81;;;16.38;62.75
46534;BME280;32260;52.008;4.752;2023-09-19T02:34:14;100848.44;;;16.42;62.84
46534;BME280;32260;52.008;4.752;2023-09-19T02:36:42;100842.69;;;16.31;62.38
46534;BME280;32260;52.008;4.752;2023-09-19T02:39:10;100841.25;;;16.24;61.61
46534;BME280;32260;52.008;4.752;2023-09-19T02:41:37;100843.66;;;16.30;61.84
46534;BME280;32260;52.008;4.752;2023-09-19T02:44:03;100846.19;;;16.33;61.69
46534;BME280;32260;52.008;4.752;2023-09-19T02:46:33;100845.06;;;16.39;62.20
46534;BME280;32260;52.008;4.752;2023-09-19T02:48:59;100841.00;;;16.30;62.29
46534;BME280;32260;52.008;4.752;2023-09-19T02:51:25;100845.34;;;16.32;62.42
46534;BME280;32260;52.008;4.752;2023-09-19T02:53:51;100839.84;;;16.36;62.50
46534;BME280;32260;52.008;4.752;2023-09-19T02:56:19;100838.38;;;16.28;62.65
46534;BME280;32260;52.008;4.752;2023-09-19T02:58:45;100836.50;;;16.30;63.00
46534;BME280;32260;52.008;4.752;2023-09-19T03:01:11;100832.28;;;16.25;63.28
46534;BME280;32260;52.008;4.752;2023-09-19T03:03:38;100834.22;;;16.21;63.45
46534;BME280;32260;52.008;4.752;2023-09-19T03:06:07;100833.28;;;16.22;63.49
46534;BME280;32260;52.008;4.752;2023-09-19T03:08:35;100839.63;;;16.20;64.04
46534;BME280;32260;52.008;4.752;2023-09-19T03:11:06;100848.41;;;16.23;64.05
46534;BME280;32260;52.008;4.752;2023-09-19T03:13:33;100842.25;;;16.21;64.32
46534;BME280;32260;52.008;4.752;2023-09-19T03:15:59;100839.91;;;16.13;64.58
46534;BME280;32260;52.008;4.752;2023-09-19T03:18:26;100848.47;;;16.22;64.99
46534;BME280;32260;52.008;4.752;2023-09-19T03:20:54;100850.13;;;16.24;65.02
46534;BME280;32260;52.008;4.752;2023-09-19T03:23:21;100862.09;;;16.15;65.00
46534;BME280;32260;52.008;4.752;2023-09-19T03:25:47;100854.19;;;16.12;65.46
46534;BME280;32260;52.008;4.752;2023-09-19T03:28:14;100843.97;;;16.22;64.90
46534;BME280;32260;52.008;4.752;2023-09-19T03:30:42;100846.00;;;16.17;65.16
46534;BME280;32260;52.008;4.752;2023-09-19T03:33:08;100841.19;;;16.25;64.86
46534;BME280;32260;52.008;4.752;2023-09-19T03:35:34;100840.19;;;16.28;65.15
46534;BME280;32260;52.008;4.752;2023-09-19T03:38:00;100838.50;;;16.25;64.94
46534;BME280;32260;52.008;4.752;2023-09-19T03:40:26;100838.63;;;16.22;64.63
46534;BME280;32260;52.008;4.752;2023-09-19T03:42:52;100834.09;;;16.24;64.70
46534;BME280;32260;52.008;4.752;2023-09-19T03:45:18;100832.28;;;16.25;65.13
46534;BME280;32260;52.008;4.752;2023-09-19T03:47:45;100840.63;;;16.17;64.74
46534;BME280;32260;52.008;4.752;2023-09-19T03:50:13;100841.78;;;16.11;64.77
46534;BME280;32260;52.008;4.752;2023-09-19T03:52:44;100845.25;;;16.13;64.70
46534;BME280;32260;52.008;4.752;2023-09-19T03:55:10;100859.69;;;16.09;64.36
46534;BME280;32260;52.008;4.752;2023-09-19T03:57:37;100852.78;;;16.04;64.39
46534;BME280;32260;52.008;4.752;2023-09-19T04:00:04;100850.19;;;16.02;64.19
46534;BME280;32260;52.008;4.752;2023-09-19T04:02:38;100862.63;;;16.03;64.12
46534;BME280;32260;52.008;4.752;2023-09-19T04:05:04;100871.16;;;15.91;64.69
46534;BME280;32260;52.008;4.752;2023-09-19T04:07:30;100870.78;;;16.00;64.61
46534;BME280;32260;52.008;4.752;2023-09-19T04:09:56;100868.78;;;16.05;64.18
46534;BME280;32260;52.008;4.752;2023-09-19T04:12:22;100881.59;;;15.97;64.83
46534;BME280;32260;52.008;4.752;2023-09-19T04:14:48;100881.41;;;16.01;65.00
46534;BME280;32260;52.008;4.752;2023-09-19T04:17:16;100887.41;;;16.07;64.86
46534;BME280;32260;52.008;4.752;2023-09-19T04:19:42;100891.84;;;16.08;65.13
46534;BME280;32260;52.008;4.752;2023-09-19T04:22:08;100883.59;;;16.12;64.86
46534;BME280;32260;52.008;4.752;2023-09-19T04:24:35;100888.28;;;16.07;65.11
46534;BME280;32260;52.008;4.752;2023-09-19T04:27:01;100884.94;;;16.02;65.35
46534;BME280;32260;52.008;4.752;2023-09-19T04:29:27;100892.84;;;16.05;65.16
46534;BME280;32260;52.008;4.752;2023-09-19T04:31:55;100896.03;;;16.13;65.27
46534;BME280;32260;52.008;4.752;2023-09-19T04:34:22;100892.56;;;16.11;65.34
46534;BME280;32260;52.008;4.752;2023-09-19T04:36:50;100893.34;;;16.13;65.16
46534;BME280;32260;52.008;4.752;2023-09-19T04:39:16;100893.59;;;16.09;65.16
46534;BME280;32260;52.008;4.752;2023-09-19T04:41:43;100888.16;;;16.10;65.39
46534;BME280;32260;52.008;4.752;2023-09-19T04:44:13;100906.25;;;16.04;65.67
46534;BME280;32260;52.008;4.752;2023-09-19T04:46:39;100902.31;;;16.12;65.36
46534;BME280;32260;52.008;4.752;2023-09-19T04:49:05;100897.63;;;15.97;65.75
46534;BME280;32260;52.008;4.752;2023-09-19T04:51:31;100895.75;;;15.99;65.80
46534;BME280;32260;52.008;4.752;2023-09-19T04:54:00;100903.81;;;15.97;66.28
46534;BME280;32260;52.008;4.752;2023-09-19T04:56:27;100901.09;;;15.99;66.46
46534;BME280;32260;52.008;4.752;2023-09-19T04:58:54;100900.91;;;16.04;66.25
46534;BME280;32260;52.008;4.752;2023-09-19T05:01:20;100902.56;;;16.06;66.05
46534;BME280;32260;52.008;4.752;2023-09-19T05:03:49;100902.84;;;16.00;66.39
46534;BME280;32260;52.008;4.752;2023-09-19T05:06:19;100899.78;;;16.09;65.93
46534;BME280;32260;52.008;4.752;2023-09-19T05:08:47;100909.53;;;16.10;66.25
46534;BME280;32260;52.008;4.752;2023-09-19T05:11:19;100917.41;;;16.13;66.15
46534;BME280;32260;52.008;4.752;2023-09-19T05:13:48;100913.63;;;16.19;65.83
46534;BME280;32260;52.008;4.752;2023-09-19T05:16:16;100908.47;;;16.14;65.63
46534;BME280;32260;52.008;4.752;2023-09-19T05:18:42;100908.22;;;16.21;65.84
46534;BME280;32260;52.008;4.752;2023-09-19T05:21:08;100907.53;;;16.15;65.79
46534;BME280;32260;52.008;4.752;2023-09-19T05:23:34;100903.88;;;16.18;65.64
46534;BME280;32260;52.008;4.752;2023-09-19T05:26:00;100910.78;;;16.24;65.54
46534;BME280;32260;52.008;4.752;2023-09-19T05:28:27;100901.78;;;16.25;65.40
46534;BME280;32260;52.008;4.752;2023-09-19T05:30:53;100887.81;;;16.18;65.75
46534;BME280;32260;52.008;4.752;2023-09-19T05:33:20;100897.59;;;16.19;65.63
46534;BME280;32260;52.008;4.752;2023-09-19T05:35:48;100896.00;;;16.15;65.65
46534;BME280;32260;52.008;4.752;2023-09-19T05:38:14;100897.66;;;16.17;65.76
46534;BME280;32260;52.008;4.752;2023-09-19T05:40:45;100897.41;;;16.24;65.79
46534;BME280;32260;52.008;4.752;2023-09-19T05:43:12;100898.59;;;16.16;65.94
46534;BME280;32260;52.008;4.752;2023-09-19T05:45:40;100899.94;;;16.27;65.87
46534;BME280;32260;52.008;4.752;2023-09-19T05:48:09;100893.47;;;16.32;65.72
46534;BME280;32260;52.008;4.752;2023-09-19T05:50:37;100907.13;;;16.25;65.96
46534;BME280;32260;52.008;4.752;2023-09-19T05:53:04;100915.97;;;16.27;66.22
46534;BME280;32260;52.008;4.752;2023-09-19T05:55:32;100912.22;;;16.10;66.79
46534;BME280;32260;52.008;4.752;2023-09-19T05:57:58;100920.56;;;16.23;66.71
46534;BME280;32260;52.008;4.752;2023-09-19T06:00:25;100920.66;;;16.22;66.98
46534;BME280;32260;52.008;4.752;2023-09-19T06:02:55;100920.72;;;16.20;66.96
46534;BME280;32260;52.008;4.752;2023-09-19T06:05:22;100921.06;;;16.33;66.84
46534;BME280;32260;52.008;4.752;2023-09-19T06:07:48;100918.53;;;16.30;66.93
46534;BME280;32260;52.008;4.752;2023-09-19T06:10:16;100922.53;;;16.40;66.64
46534;BME280;32260;52.008;4.752;2023-09-19T06:12:43;100927.22;;;16.35;67.15
46534;BME280;32260;52.008;4.752;2023-09-19T06:15:11;100933.50;;;16.34;66.84
46534;BME280;32260;52.008;4.752;2023-09-19T06:17:43;100932.09;;;16.46;66.73
46534;BME280;32260;52.008;4.752;2023-09-19T06:20:12;100926.72;;;16.46;66.58
46534;BME280;32260;52.008;4.752;2023-09-19T06:22:42;100934.72;;;16.47;67.08
46534;BME280;32260;52.008;4.752;2023-09-19T06:25:09;100942.03;;;16.42;67.07
46534;BME280;32260;52.008;4.752;2023-09-19T06:27:38;100919.84;;;16.61;66.72
46534;BME280;32260;52.008;4.752;2023-09-19T06:30:07;100923.53;;;16.58;66.58
46534;BME280;32260;52.008;4.752;2023-09-19T06:32:34;100913.38;;;16.66;66.42
46534;BME280;32260;52.008;4.752;2023-09-19T06:35:00;100916.78;;;16.70;66.46
46534;BME280;32260;52.008;4.752;2023-09-19T06:37:28;100924.66;;;16.73;66.67
46534;BME280;32260;52.008;4.752;2023-09-19T06:39:55;100927.00;;;16.81;66.34
46534;BME280;32260;52.008;4.752;2023-09-19T06:42:23;100927.59;;;16.88;66.49
46534;BME280;32260;52.008;4.752;2023-09-19T06:44:49;100934.97;;;16.82;66.79
46534;BME280;32260;52.008;4.752;2023-09-19T06:47:15;100933.88;;;16.87;66.51
46534;BME280;32260;52.008;4.752;2023-09-19T06:49:42;100929.47;;;16.86;66.98
46534;BME280;32260;52.008;4.752;2023-09-19T06:52:11;100929.34;;;16.89;66.73
46534;BME280;32260;52.008;4.752;2023-09-19T06:54:37;100923.88;;;16.92;66.80
46534;BME280;32260;52.008;4.752;2023-09-19T06:57:03;100929.09;;;16.95;66.82
46534;BME280;32260;52.008;4.752;2023-09-19T06:59:30;100929.22;;;16.92;66.72
46534;BME280;32260;52.008;4.752;2023-09-19T07:01:58;100937.50;;;17.06;66.44
46534;BME280;32260;52.008;4.752;2023-09-19T07:04:25;100940.44;;;17.00;66.70
46534;BME280;32260;52.008;4.752;2023-09-19T07:06:51;100939.56;;;17.00;66.40
46534;BME280;32260;52.008;4.752;2023-09-19T07:09:18;100939.00;;;17.12;66.33
46534;BME280;32260;52.008;4.752;2023-09-19T07:11:45;100937.94;;;17.16;66.50
46534;BME280;32260;52.008;4.752;2023-09-19T07:14:13;100942.69;;;17.09;66.54
46534;BME280;32260;52.008;4.752;2023-09-19T07:16:39;100941.97;;;17.06;66.32
46534;BME280;32260;52.008;4.752;2023-09-19T07:19:08;100948.94;;;17.29;65.85
46534;BME280;32260;52.008;4.752;2023-09-19T07:21:34;100946.63;;;17.21;66.18
46534;BME280;32260;52.008;4.752;2023-09-19T07:24:01;100947.66;;;17.19;66.11
46534;BME280;32260;52.008;4.752;2023-09-19T07:26:29;100948.41;;;17.21;66.16
46534;BME280;32260;52.008;4.752;2023-09-19T07:28:56;100946.63;;;17.40;65.72
46534;BME280;32260;52.008;4.752;2023-09-19T07:31:23;100945.19;;;17.33;65.55
46534;BME280;32260;52.008;4.752;2023-09-19T07:33:51;100950.91;;;17.44;65.67
46534;BME280;32260;52.008;4.752;2023-09-19T07:36:17;100952.00;;;17.40;65.41
46534;BME280;32260;52.008;4.752;2023-09-19T07:38:43;100953.16;;;17.54;65.74
46534;BME280;32260;52.008;4.752;2023-09-19T07:41:09;100949.28;;;17.59;65.75
46534;BME280;32260;52.008;4.752;2023-09-19T07:43:36;100951.47;;;17.70;65.64
46534;BME280;32260;52.008;4.752;2023-09-19T07:46:06;100950.25;;;17.77;65.45
46534;BME280;32260;52.008;4.752;2023-09-19T07:48:34;100958.91;;;17.83;65.42
46534;BME280;32260;52.008;4.752;2023-09-19T07:51:04;100955.47;;;18.00;64.97
46534;BME280;32260;52.008;4.752;2023-09-19T07:53:30;100955.03;;;17.71;64.77
46534;BME280;32260;52.008;4.752;2023-09-19T07:56:22;100958.50;;;17.92;64.97
46534;BME280;32260;52.008;4.752;2023-09-19T07:58:49;100949.78;;;18.06;64.44
46534;BME280;32260;52.008;4.752;2023-09-19T08:01:15;100948.84;;;17.88;64.86
46534;BME280;32260;52.008;4.752;2023-09-19T08:03:42;100953.63;;;18.00;65.13
46534;BME280;32260;52.008;4.752;2023-09-19T08:06:09;100952.22;;;18.10;65.05
46534;BME280;32260;52.008;4.752;2023-09-19T08:08:36;100958.38;;;18.13;65.17
46534;BME280;32260;52.008;4.752;2023-09-19T08:11:05;100945.69;;;18.16;64.56
46534;BME280;32260;52.008;4.752;2023-09-19T08:13:39;100953.44;;;18.22;64.70
46534;BME280;32260;52.008;4.752;2023-09-19T08:16:09;100940.34;;;18.16;64.35
46534;BME280;32260;52.008;4.752;2023-09-19T08:18:36;100944.22;;;18.28;64.31
46534;BME280;32260;52.008;4.752;2023-09-19T08:21:06;100939.00;;;18.42;64.33
46534;BME280;32260;52.008;4.752;2023-09-19T08:23:37;100928.75;;;18.51;64.64
46534;BME280;32260;52.008;4.752;2023-09-19T08:26:04;100944.69;;;18.54;63.72
46534;BME280;32260;52.008;4.752;2023-09-19T08:28:34;100935.22;;;18.64;63.85
46534;BME280;32260;52.008;4.752;2023-09-19T08:31:03;100925.88;;;18.71;63.24
46534;BME280;32260;52.008;4.752;2023-09-19T08:33:32;100932.34;;;18.67;62.65
46534;BME280;32260;52.008;4.752;2023-09-19T08:35:59;100937.72;;;18.67;62.82
46534;BME280;32260;52.008;4.752;2023-09-19T08:38:25;100939.06;;;18.76;62.05
46534;BME280;32260;52.008;4.752;2023-09-19T08:40:57;100932.91;;;18.74;61.67
46534;BME280;32260;52.008;4.752;2023-09-19T08:43:27;100937.88;;;18.82;61.23
46534;BME280;32260;52.008;4.752;2023-09-19T08:46:09;100930.59;;;19.01;60.74
46534;BME280;32260;52.008;4.752;2023-09-19T08:48:43;100928.41;;;18.74;61.59
46534;BME280;32260;52.008;4.752;2023-09-19T08:51:21;100922.38;;;19.04;61.66
46534;BME280;32260;52.008;4.752;2023-09-19T08:54:12;100932.56;;;18.98;61.25
46534;BME280;32260;52.008;4.752;2023-09-19T08:56:42;100936.03;;;19.00;61.22
46534;BME280;32260;52.008;4.752;2023-09-19T08:59:09;100916.81;;;19.07;61.42
46534;BME280;32260;52.008;4.752;2023-09-19T09:01:42;100923.59;;;19.15;61.04
46534;BME280;32260;52.008;4.752;2023-09-19T09:04:10;100918.03;;;19.02;61.06
46534;BME280;32260;52.008;4.752;2023-09-19T09:06:39;100923.09;;;19.08;60.68
46534;BME280;32260;52.008;4.752;2023-09-19T09:09:06;100934.34;;;19.15;60.87
46534;BME280;32260;52.008;4.752;2023-09-19T09:11:33;100941.09;;;19.06;60.41
46534;BME280;32260;52.008;4.752;2023-09-19T09:13:59;100934.53;;;19.12;60.52
46534;BME280;32260;52.008;4.752;2023-09-19T09:16:26;100937.69;;;19.02;60.11
46534;BME280;32260;52.008;4.752;2023-09-19T09:18:52;100923.59;;;19.15;59.88
46534;BME280;32260;52.008;4.752;2023-09-19T09:21:21;100940.25;;;19.37;59.51
46534;BME280;32260;52.008;4.752;2023-09-19T09:23:49;100931.22;;;19.22;59.40
46534;BME280;32260;52.008;4.752;2023-09-19T09:26:17;100935.22;;;19.31;59.78
46534;BME280;32260;52.008;4.752;2023-09-19T09:28:46;100933.25;;;19.35;59.11
46534;BME280;32260;52.008;4.752;2023-09-19T09:31:23;100931.63;;;19.64;59.02
46534;BME280;32260;52.008;4.752;2023-09-19T09:33:55;100929.69;;;19.66;58.51
46534;BME280;32260;52.008;4.752;2023-09-19T09:36:41;100927.91;;;19.83;58.13
46534;BME280;32260;52.008;4.752;2023-09-19T09:39:13;100930.31;;;19.71;58.22
46534;BME280;32260;52.008;4.752;2023-09-19T09:41:44;100927.09;;;19.65;57.72
46534;BME280;32260;52.008;4.752;2023-09-19T09:44:14;100936.41;;;19.59;58.18
46534;BME280;32260;52.008;4.752;2023-09-19T09:46:43;100930.31;;;19.55;58.43
46534;BME280;32260;52.008;4.752;2023-09-19T09:49:29;100923.97;;;19.72;58.31
46534;BME280;32260;52.008;4.752;2023-09-19T09:52:08;100914.59;;;19.80;58.16
46534;BME280;32260;52.008;4.752;2023-09-19T09:54:59;100914.75;;;20.09;57.35
46534;BME280;32260;52.008;4.752;2023-09-19T09:57:34;100912.59;;;19.99;57.38
46534;BME280;32260;52.008;4.752;2023-09-19T10:00:01;100914.38;;;20.15;57.22
46534;BME280;32260;52.008;4.752;2023-09-19T10:02:46;100908.09;;;20.30;57.13
46534;BME280;32260;52.008;4.752;2023-09-19T10:07:51;100908.38;;;20.26;56.54
46534;BME280;32260;52.008;4.752;2023-09-19T10:13:13;100894.81;;;20.58;56.99
46534;BME280;32260;52.008;4.752;2023-09-19T10:15:43;100909.28;;;20.41;56.31
46534;BME280;32260;52.008;4.752;2023-09-19T10:18:15;100894.31;;;20.65;56.28
46534;BME280;32260;52.008;4.752;2023-09-19T10:20:45;100887.63;;;20.73;56.41
46534;BME280;32260;52.008;4.752;2023-09-19T10:23:12;100888.66;;;20.70;56.40
46534;BME280;32260;52.008;4.752;2023-09-19T10:25:41;100877.53;;;20.76;55.88
46534;BME280;32260;52.008;4.752;2023-09-19T10:28:09;100884.84;;;20.89;54.92
46534;BME280;32260;52.008;4.752;2023-09-19T10:30:38;100878.41;;;20.91;55.58
46534;BME280;32260;52.008;4.752;2023-09-19T10:33:11;100872.16;;;21.05;55.60
46534;BME280;32260;52.008;4.752;2023-09-19T10:35:40;100867.63;;;20.91;55.09
46534;BME280;32260;52.008;4.752;2023-09-19T10:38:09;100869.94;;;20.83;55.80
46534;BME280;32260;52.008;4.752;2023-09-19T10:40:37;100870.69;;;20.99;55.77
46534;BME280;32260;52.008;4.752;2023-09-19T10:43:11;100857.03;;;21.03;54.84
46534;BME280;32260;52.008;4.752;2023-09-19T10:45:39;100855.91;;;20.92;55.97
46534;BME280;32260;52.008;4.752;2023-09-19T10:48:07;100864.25;;;21.02;55.80
46534;BME280;32260;52.008;4.752;2023-09-19T10:50:55;100860.88;;;21.13;54.60
46534;BME280;32260;52.008;4.752;2023-09-19T10:53:27;100847.53;;;21.39;54.32
46534;BME280;32260;52.008;4.752;2023-09-19T10:55:57;100864.34;;;21.00;53.79
46534;BME280;32260;52.008;4.752;2023-09-19T10:58:28;100863.28;;;21.03;53.73
46534;BME280;32260;52.008;4.752;2023-09-19T11:00:57;100857.44;;;20.96;54.83
46534;BME280;32260;52.008;4.752;2023-09-19T11:03:31;100858.97;;;21.00;54.48
46534;BME280;32260;52.008;4.752;2023-09-19T11:06:04;100847.94;;;21.32;53.69
46534;BME280;32260;52.008;4.752;2023-09-19T11:08:50;100854.28;;;21.46;53.42
46534;BME280;32260;52.008;4.752;2023-09-19T11:14:29;100838.50;;;21.40;52.62
46534;BME280;32260;52.008;4.752;2023-09-19T11:23:27;100841.59;;;21.33;52.99
46534;BME280;32260;52.008;4.752;2023-09-19T11:25:48;100842.56;;;21.32;53.40
46534;BME280;32260;52.008;4.752;2023-09-19T11:30:54;100815.78;;;21.29;52.94
46534;BME280;32260;52.008;4.752;2023-09-19T11:36:04;100832.72;;;21.31;53.12
46534;BME280;32260;52.008;4.752;2023-09-19T11:49:31;100827.03;;;20.94;54.28
46534;BME280;32260;52.008;4.752;2023-09-19T11:51:59;100834.88;;;20.68;54.20
46534;BME280;32260;52.008;4.752;2023-09-19T11:54:27;100828.97;;;20.92;54.37
46534;BME280;32260;52.008;4.752;2023-09-19T11:56:57;100825.72;;;20.73;54.87
46534;BME280;32260;52.008;4.752;2023-09-19T12:02:06;100837.22;;;20.75;54.99
46534;BME280;32260;52.008;4.752;2023-09-19T12:04:36;100828.03;;;20.79;55.08
46534;BME280;32260;52.008;4.752;2023-09-19T12:07:06;100830.72;;;20.79;54.80
46534;BME280;32260;52.008;4.752;2023-09-19T12:09:39;100841.16;;;20.83;54.76
46534;BME280;32260;52.008;4.752;2023-09-19T12:12:06;100836.22;;;20.77;54.82
46534;BME280;32260;52.008;4.752;2023-09-19T12:14:32;100838.97;;;20.76;55.17
46534;BME280;32260;52.008;4.752;2023-09-19T12:16:59;100844.69;;;20.69;55.54
46534;BME280;32260;52.008;4.752;2023-09-19T12:19:27;100849.13;;;20.71;55.45
46534;BME280;32260;52.008;4.752;2023-09-19T12:21:59;100832.97;;;20.99;55.29
46534;BME280;32260;52.008;4.752;2023-09-19T12:24:31;100822.31;;;20.98;54.86
46534;BME280;32260;52.008;4.752;2023-09-19T12:27:03;100821.03;;;21.18;54.80
46534;BME280;32260;52.008;4.752;2023-09-19T12:29:32;100815.38;;;21.36;54.60
46534;BME280;32260;52.008;4.752;2023-09-19T12:32:07;100819.25;;;21.31;54.10
46534;BME280;32260;52.008;4.752;2023-09-19T12:34:34;100818.03;;;21.50;54.38
46534;BME280;32260;52.008;4.752;2023-09-19T12:39:43;100856.31;;;21.28;54.58
46534;BME280;32260;52.008;4.752;2023-09-19T12:42:11;100835.44;;;21.17;54.98
46534;BME280;32260;52.008;4.752;2023-09-19T12:44:42;100849.06;;;21.01;55.33
46534;BME280;32260;52.008;4.752;2023-09-19T12:47:14;100836.53;;;21.14;55.70
46534;BME280;32260;52.008;4.752;2023-09-19T12:52:46;100811.53;;;21.40;55.49
46534;BME280;32260;52.008;4.752;2023-09-19T12:55:30;100819.56;;;21.54;55.21
46534;BME280;32260;52.008;4.752;2023-09-19T12:58:11;100830.56;;;21.51;54.95
46534;BME280;32260;52.008;4.752;2023-09-19T13:00:40;100818.84;;;21.79;55.09
46534;BME280;32260;52.008;4.752;2023-09-19T13:06:01;100802.00;;;21.89;54.43
46534;BME280;32260;52.008;4.752;2023-09-19T13:11:15;100812.56;;;21.79;54.85
46534;BME280;32260;52.008;4.752;2023-09-19T13:16:23;100822.84;;;21.59;54.50
46534;BME280;32260;52.008;4.752;2023-09-19T13:18:52;100830.34;;;21.54;54.33
46534;BME280;32260;52.008;4.752;2023-09-19T13:21:35;100819.72;;;21.38;54.67
46534;BME280;32260;52.008;4.752;2023-09-19T13:24:25;100827.31;;;21.46;54.40
46534;BME280;32260;52.008;4.752;2023-09-19T13:26:53;100832.47;;;21.22;54.78
46534;BME280;32260;52.008;4.752;2023-09-19T13:29:20;100811.25;;;21.03;54.66
46534;BME280;32260;52.008;4.752;2023-09-19T13:31:48;100820.28;;;21.16;54.74
46534;BME280;32260;52.008;4.752;2023-09-19T13:34:15;100802.31;;;21.29;54.02
46534;BME280;32260;52.008;4.752;2023-09-19T13:36:43;100804.19;;;21.42;54.18
46534;BME280;32260;52.008;4.752;2023-09-19T13:39:09;100798.97;;;21.53;54.01
46534;BME280;32260;52.008;4.752;2023-09-19T13:41:36;100792.91;;;21.49;53.88
46534;BME280;32260;52.008;4.752;2023-09-19T13:44:03;100802.06;;;21.47;53.95
46534;BME280;32260;52.008;4.752;2023-09-19T13:46:30;100801.63;;;21.40;53.86
46534;BME280;32260;52.008;4.752;2023-09-19T13:49:01;100809.69;;;21.13;53.80
46534;BME280;32260;52.008;4.752;2023-09-19T13:51:31;100806.47;;;21.21;53.91